Time;durP1;ratioP1;P1;durP2;ratioP2;P2;SDS_P1;SDS_P2;PMS_P1;PMS_P2;Temp;Humidity;BMP_temperature;BMP_pressure;BME280_temperature;BME280_humidity;BME280_pressure;Samples;Min_cycle;Max_cycle;Signal;HPM_P1;HPM_P2
2022/06/20 00:01:31;;;;;;;6.75;4.30;;;;;;;19.49;56.18;98688.47;5084264;28;20468;-87
2022/06/20 00:04:16;;;;;;;5.00;3.95;;;;;;;19.56;55.21;98715.94;5086882;28;20044;-87
2022/06/20 00:06:45;;;;;;;5.40;4.13;;;;;;;19.38;55.94;98685.59;5086871;28;20123;-89
2022/06/20 00:09:11;;;;;;;5.33;4.10;;;;;;;19.49;55.47;98710.03;5086409;28;20576;-92
2022/06/20 00:11:40;;;;;;;;;;;;;;;19.44;55.96;98712.16;5086619;28;20044;-91
2022/06/20 00:14:13;;;;;;;7.10;4.43;;;;;;;19.18;56.25;98677.94;5072185;28;19920;-88
2022/06/20 00:16:39;;;;;;;5.97;4.13;;;;;;;19.35;56.37;98703.81;5071701;28;20040;-87
2022/06/20 00:19:13;;;;;;;4.93;4.03;;;;;;;19.14;56.72;98676.41;5072651;28;20097;-88
2022/06/20 00:21:43;;;;;;;5.40;4.50;;;;;;;18.91;57.77;98675.13;5070497;28;20493;-90
2022/06/20 00:24:19;;;;;;;6.57;4.55;;;;;;;18.73;58.34;98667.22;5071486;28;20112;-89
2022/06/20 00:26:50;;;;;;;10.93;4.72;;;;;;;18.62;58.40;98659.78;5072456;28;20063;-87
2022/06/20 00:29:21;;;;;;;6.53;4.50;;;;;;;18.84;57.94;98694.38;5073106;28;20044;-91
2022/06/20 00:31:48;;;;;;;;;;;;;;;18.95;56.98;98682.94;5072718;28;20432;-90
2022/06/20 00:34:24;;;;;;;6.25;4.40;;;;;;;18.96;56.46;98686.53;5073187;28;19947;-91
2022/06/20 00:37:18;;;;;;;5.47;4.38;;;;;;;18.63;57.79;98656.16;5071156;28;20040;-87
2022/06/20 00:39:57;;;;;;;6.28;4.45;;;;;;;18.65;57.22;98664.13;5072020;28;20041;-87
2022/06/20 00:42:26;;;;;;;6.55;4.18;;;;;;;18.67;56.48;98660.41;5072388;28;20043;-91
2022/06/20 00:44:58;;;;;;;5.97;4.32;;;;;;;18.83;56.75;98681.88;5073008;28;20397;-89
2022/06/20 00:47:38;;;;;;;7.18;4.68;;;;;;;18.68;56.36;98659.41;5072031;28;20040;-90
2022/06/20 00:50:14;;;;;;;6.82;4.22;;;;;;;18.69;56.65;98646.81;5072586;28;20047;-90
2022/06/20 00:52:52;;;;;;;7.10;4.50;;;;;;;18.63;56.72;98655.31;5072551;28;20557;-87
2022/06/20 00:55:36;;;;;;;5.40;4.45;;;;;;;18.47;57.31;98650.81;5072848;28;20052;-88
2022/06/20 00:58:17;;;;;;;5.45;4.47;;;;;;;18.43;58.06;98664.56;5073000;28;20052;-90
2022/06/20 01:00:43;;;;;;;6.97;4.20;;;;;;;18.39;57.66;98663.03;5069873;28;20056;-92
2022/06/20 01:03:13;;;;;;;7.25;4.43;;;;;;;18.49;57.75;98672.28;5073073;28;20041;-88
2022/06/20 01:05:50;;;;;;;6.85;4.43;;;;;;;18.34;57.41;98643.59;5072069;28;20142;-90
2022/06/20 01:08:20;;;;;;;6.03;4.22;;;;;;;18.23;58.25;98652.34;5072694;28;20041;-89
2022/06/20 01:10:56;;;;;;;7.93;4.50;;;;;;;18.20;58.13;98650.69;5072352;28;20067;-90
2022/06/20 01:13:26;;;;;;;6.45;4.15;;;;;;;18.25;58.72;98671.94;5072637;28;20119;-89
2022/06/20 01:15:55;;;;;;;6.05;4.22;;;;;;;18.00;59.49;98651.00;5071355;28;21035;-89
2022/06/20 01:18:28;;;;;;;8.55;5.80;;;;;;;17.94;59.31;98644.19;5072702;28;20047;-88
2022/06/20 01:21:11;;;;;;;7.50;4.40;;;;;;;18.01;58.86;98648.22;5072032;28;20121;-89
2022/06/20 01:23:52;;;;;;;5.97;4.43;;;;;;;18.21;59.39;98679.31;5071022;28;20098;-90
2022/06/20 01:26:37;;;;;;;7.05;4.85;;;;;;;17.97;59.93;98659.28;5070766;28;20379;-89
2022/06/20 01:29:08;;;;;;;7.45;4.85;;;;;;;17.94;59.02;98646.00;5072145;28;20048;-88
2022/06/20 01:31:43;;;;;;;7.30;4.22;;;;;;;17.98;58.54;98648.44;5071795;28;20044;-90
2022/06/20 01:34:12;;;;;;;5.20;4.30;;;;;;;18.01;58.46;98652.75;5071218;28;20064;-88
2022/06/20 01:39:42;;;;;;;6.22;4.30;;;;;;;17.92;58.56;98642.53;5109056;27;20361;-90
2022/06/20 01:48:37;;;;;;;7.13;4.20;;;;;;;17.90;59.04;98644.47;5137420;27;20405;-90
2022/06/20 01:51:09;;;;;;;6.57;4.20;;;;;;;17.72;59.46;98625.72;5108007;28;20056;-89
2022/06/20 01:53:37;;;;;;;6.72;4.60;;;;;;;17.76;60.57;98637.16;5108787;28;20043;-90
2022/06/20 01:56:08;;;;;;;6.35;4.40;;;;;;;17.77;60.22;98655.91;5110559;28;20065;-89
2022/06/20 01:58:39;;;;;;;7.15;4.60;;;;;;;17.80;61.53;98665.59;5108233;28;20465;-89
2022/06/20 02:01:14;;;;;;;9.60;4.70;;;;;;;17.61;60.70;98637.09;5105605;28;20043;-88
2022/06/20 02:03:47;;;;;;;7.60;4.55;;;;;;;17.66;61.69;98642.22;5108286;28;20090;-90
2022/06/20 02:06:21;;;;;;;6.70;4.97;;;;;;;17.72;60.99;98665.16;5107814;28;20682;-87
2022/06/20 02:08:53;;;;;;;7.13;4.78;;;;;;;17.54;60.24;98633.00;5107843;28;20031;-88
2022/06/20 02:11:32;;;;;;;7.57;4.70;;;;;;;17.67;60.21;98662.75;5108068;28;20043;-86
2022/06/20 02:14:01;;;;;;;6.13;4.70;;;;;;;17.53;60.15;98651.94;5106282;28;20044;-89
2022/06/20 02:16:42;;;;;;;6.50;4.55;;;;;;;17.60;60.93;98672.13;5108070;28;20044;-88
2022/06/20 02:19:19;;;;;;;6.93;4.43;;;;;;;17.46;60.06;98635.31;5108523;28;20493;-89
2022/06/20 02:21:46;;;;;;;6.72;4.60;;;;;;;17.43;59.72;98633.63;5108122;28;20036;-89
2022/06/20 02:24:27;;;;;;;6.72;4.85;;;;;;;17.37;60.14;98625.94;5109950;28;20723;-90
2022/06/20 02:26:56;;;;;;;9.52;4.43;;;;;;;17.48;59.71;98641.47;5108003;28;20497;-88
2022/06/20 02:29:24;;;;;;;;;;;;;;;17.64;59.95;98676.38;5107634;28;20073;-89
2022/06/20 02:31:56;;;;;;;7.95;4.90;;;;;;;17.28;61.00;98625.59;5107802;28;19965;-87
2022/06/20 02:34:30;;;;;;;5.20;4.38;;;;;;;17.24;61.13;98627.59;5108818;28;20462;-92
2022/06/20 02:37:09;;;;;;;7.45;5.15;;;;;;;17.24;60.41;98624.91;5108830;28;20040;-91
2022/06/20 02:39:45;;;;;;;6.47;4.70;;;;;;;17.27;60.39;98619.34;5107511;28;20100;-89
2022/06/20 02:42:17;;;;;;;6.40;4.20;;;;;;;17.24;60.83;98627.59;5104621;28;20046;-88
2022/06/20 02:44:49;;;;;;;6.65;4.93;;;;;;;17.20;61.07;98628.72;5108333;28;20485;-89
2022/06/20 02:47:20;;;;;;;8.32;4.93;;;;;;;17.27;61.88;98645.38;5107964;28;20043;-89
2022/06/20 02:49:51;;;;;;;7.95;4.88;;;;;;;17.19;62.20;98638.56;5107993;28;20123;-89
2022/06/20 02:52:36;;;;;;;5.90;4.60;;;;;;;17.11;62.35;98623.84;5107393;28;20055;-89
2022/06/20 02:55:26;;;;;;;9.07;4.70;;;;;;;16.98;62.88;98613.81;5106870;28;20054;-88
2022/06/20 02:57:58;;;;;;;6.40;5.65;;;;;;;16.97;63.19;98620.09;5103858;28;20032;-89
2022/06/20 03:00:33;;;;;;;10.10;5.40;;;;;;;16.99;64.15;98626.25;5094159;28;20466;-89
2022/06/20 03:03:09;;;;;;;6.22;5.30;;;;;;;17.00;64.09;98632.50;5094113;28;20411;-89
2022/06/20 03:06:00;;;;;;;9.63;5.68;;;;;;;17.07;64.38;98650.03;5091726;28;20043;-91
2022/06/20 03:08:32;;;;;;;7.07;4.55;;;;;;;16.96;63.84;98631.81;5094121;28;20128;-91
2022/06/20 03:11:05;;;;;;;7.78;5.03;;;;;;;16.82;63.54;98616.44;5093281;28;20044;-90
2022/06/20 03:13:35;;;;;;;6.68;5.18;;;;;;;16.75;64.05;98614.16;5093400;28;20090;-90
2022/06/20 03:16:11;;;;;;;8.90;6.15;;;;;;;16.68;64.15;98612.78;5092102;28;20097;-90
2022/06/20 03:18:49;;;;;;;7.68;5.28;;;;;;;16.71;64.25;98621.50;5092757;28;20071;-89
2022/06/20 03:21:25;;;;;;;7.03;5.00;;;;;;;16.76;63.92;98630.22;5093377;28;20036;-90
2022/06/20 03:23:55;;;;;;;7.95;5.30;;;;;;;16.72;64.63;98623.25;5094030;28;20562;-89
2022/06/20 03:26:30;;;;;;;7.25;5.03;;;;;;;16.71;65.02;98623.34;5094508;28;20370;-89
2022/06/20 03:28:58;;;;;;;7.20;5.28;;;;;;;16.94;65.17;98665.97;5092310;28;20039;-90
2022/06/20 03:31:27;;;;;;;7.80;5.50;;;;;;;16.69;64.46;98618.03;5092749;28;20401;-90
2022/06/20 03:34:09;;;;;;;9.10;5.25;;;;;;;16.78;64.66;98638.16;5093547;28;21012;-89
2022/06/20 03:36:47;;;;;;;6.60;5.15;;;;;;;16.72;64.92;98623.25;5089850;28;20048;-89
2022/06/20 03:39:15;;;;;;;8.73;5.45;;;;;;;16.92;65.46;98640.13;5092786;28;20538;-89
2022/06/20 03:41:48;;;;;;;6.82;5.28;;;;;;;16.89;66.09;98643.84;5092546;28;20765;-91
2022/06/20 03:44:17;;;;;;;7.35;5.68;;;;;;;16.71;66.61;98615.28;5093803;28;20047;-88
2022/06/20 03:46:54;;;;;;;8.07;5.57;;;;;;;16.69;67.03;98620.72;5093350;28;20378;-87
2022/06/20 03:49:26;;;;;;;6.57;5.32;;;;;;;16.78;67.29;98647.06;5092903;28;20055;-90
2022/06/20 03:52:08;;;;;;;10.60;5.47;;;;;;;16.72;67.76;98639.38;5093288;28;20044;-90
2022/06/20 03:54:40;;;;;;;7.13;5.60;;;;;;;16.61;68.06;98626.53;5091854;28;20063;-90
2022/06/20 03:57:11;;;;;;;7.47;5.57;;;;;;;16.88;67.64;98665.44;5093473;28;20123;-90
2022/06/20 03:59:42;;;;;;;9.15;5.70;;;;;;;16.65;67.38;98629.91;5091568;28;20168;-88
2022/06/20 04:02:19;;;;;;;9.65;5.65;;;;;;;16.63;67.57;98632.69;5092477;28;20500;-90
2022/06/20 04:04:52;;;;;;;8.40;5.70;;;;;;;16.79;67.63;98667.63;5092111;28;20047;-92
2022/06/20 04:07:28;;;;;;;9.50;5.90;;;;;;;16.54;68.43;98624.25;5092930;28;20127;-87
2022/06/20 04:13:06;;;;;;;7.43;5.53;;;;;;;16.69;68.82;98646.72;5136748;27;20122;-88
2022/06/20 04:15:44;;;;;;;9.77;6.05;;;;;;;16.58;69.28;98636.56;5119891;28;20048;-88
2022/06/20 04:21:26;;;;;;;8.07;6.10;;;;;;;16.67;70.21;98640.56;4994194;27;4326673;-88
2022/06/20 04:24:03;;;;;;;7.72;6.20;;;;;;;16.78;70.05;98652.44;5140127;27;20496;-89
2022/06/20 04:26:35;;;;;;;9.70;6.22;;;;;;;16.97;70.38;98689.09;5140249;27;20408;-89
2022/06/20 04:29:15;;;;;;;8.00;5.97;;;;;;;16.87;71.24;98677.97;5143430;27;20107;-89
2022/06/20 04:31:50;;;;;;;9.77;6.78;;;;;;;16.75;71.24;98654.44;5139765;27;20091;-91
2022/06/20 04:34:25;;;;;;;8.18;6.57;;;;;;;16.85;71.63;98661.09;5139822;27;20041;-90
2022/06/20 04:36:56;;;;;;;8.48;6.72;;;;;;;16.84;71.53;98652.16;5140024;27;20039;-88
2022/06/20 04:39:27;;;;;;;10.65;6.88;;;;;;;17.00;71.29;98687.13;5138845;27;20046;-89
2022/06/20 04:42:01;;;;;;;7.72;6.38;;;;;;;16.99;72.05;98685.38;5139356;27;20112;-88
2022/06/20 04:44:39;;;;;;;8.88;6.93;;;;;;;16.89;72.17;98667.16;5142223;27;20050;-89
2022/06/20 04:47:17;;;;;;;10.00;6.73;;;;;;;16.92;71.77;98675.91;5141890;27;20495;-90
2022/06/20 04:49:47;;;;;;;11.18;7.03;;;;;;;17.16;71.45;98697.88;5142857;27;20034;-87
2022/06/20 04:52:24;;;;;;;12.38;7.00;;;;;;;17.82;68.94;98699.56;5140096;27;20122;-88
2022/06/20 04:54:55;;;;;;;9.07;6.57;;;;;;;18.70;65.58;98682.72;5141807;27;20047;-91
2022/06/20 04:57:37;;;;;;;9.00;6.60;;;;;;;19.16;63.89;98678.03;5142166;27;20455;-89
2022/06/20 05:00:31;;;;;;;11.27;6.57;;;;;;;19.75;62.36;98677.81;5135131;27;20046;-90
2022/06/20 05:02:57;;;;;;;10.48;6.18;;;;;;;20.15;59.91;98683.28;5143500;27;20027;-91
2022/06/20 05:05:30;;;;;;;11.35;6.47;;;;;;;20.60;60.00;98697.34;5142062;27;20034;-91
2022/06/20 05:08:13;;;;;;;8.18;6.40;;;;;;;20.99;56.64;98682.00;5140309;27;20047;-88
2022/06/20 05:10:47;;;;;;;8.00;6.45;;;;;;;21.21;55.43;98669.59;5137596;27;20055;-89
2022/06/20 05:13:22;;;;;;;12.75;6.78;;;;;;;21.48;53.70;98666.78;5139816;27;20126;-90
2022/06/20 05:15:50;;;;;;;8.15;6.53;;;;;;;21.67;53.62;98667.16;5140891;27;20031;-91
2022/06/20 05:18:26;;;;;;;10.52;6.50;;;;;;;22.03;52.49;98670.75;5142808;27;20400;-91
2022/06/20 05:21:27;;;;;;;11.75;6.68;;;;;;;22.02;52.59;98666.34;5140025;27;20104;-89
2022/06/20 05:24:00;;;;;;;10.80;6.50;;;;;;;22.03;52.98;98667.19;5139492;27;20428;-90
2022/06/20 05:26:31;;;;;;;9.35;6.60;;;;;;;22.34;52.60;98673.91;5139605;27;20646;-88
2022/06/20 05:29:03;;;;;;;9.45;6.63;;;;;;;22.67;51.12;98685.81;5138794;27;20174;-89
2022/06/20 05:31:52;;;;;;;12.18;6.88;;;;;;;22.69;50.88;98705.53;5133884;27;20047;-88
2022/06/20 05:34:22;;;;;;;9.52;6.00;;;;;;;22.72;51.26;98695.28;5124383;27;20043;-91
2022/06/20 05:36:53;;;;;;;9.20;6.43;;;;;;;22.65;50.88;98685.91;5124245;27;20046;-89
2022/06/20 05:39:33;;;;;;;10.07;6.15;;;;;;;22.91;50.83;98702.84;5129128;27;20039;-90
2022/06/20 05:42:13;;;;;;;8.10;6.10;;;;;;;22.64;50.70;98669.75;5128434;27;20038;-93
2022/06/20 05:44:41;;;;;;;9.20;5.85;;;;;;;22.88;49.95;98675.97;5124943;27;20119;-88
2022/06/20 05:47:22;;;;;;;8.93;6.43;;;;;;;22.84;50.35;98695.31;5126400;27;20043;-91
2022/06/20 05:49:55;;;;;;;8.68;6.53;;;;;;;23.05;49.90;98685.53;5128243;27;20035;-91
2022/06/20 05:52:32;;;;;;;9.45;6.43;;;;;;;23.18;50.47;98690.81;5130960;27;20050;-93
2022/06/20 05:55:21;;;;;;;7.63;5.90;;;;;;;23.12;49.94;98673.19;5128377;27;20381;-92
2022/06/20 05:58:27;;;;;;;8.38;5.60;;;;;;;23.26;49.76;98684.78;5084865;27;20047;-90
2022/06/20 06:01:13;;;;;;;9.48;6.07;;;;;;;23.27;49.54;98670.19;5125436;27;20039;-92
2022/06/20 06:04:08;;;;;;;9.32;6.82;;;;;;;23.47;49.13;98661.31;5124334;27;20063;-92
2022/06/20 06:07:13;;;;;;;10.43;6.70;;;;;;;23.67;48.71;98677.81;5110064;27;20408;-90
2022/06/20 06:10:26;;;;;;;;;;;;;;;;;;;;;
2022/06/20 06:13:23;;;;;;;7.88;6.15;;;;;;;23.89;49.12;98679.66;5132598;27;20043;-90
2022/06/20 06:20:32;;;;;;;9.85;6.07;;;;;;;24.24;47.91;98664.94;5121908;27;20605;-91
2022/06/20 06:23:26;;;;;;;8.13;5.68;;;;;;;24.34;46.15;98699.34;5108100;28;20041;-92
2022/06/20 06:26:16;;;;;;;7.15;5.70;;;;;;;23.97;46.94;98669.00;5029451;28;20046;-92
2022/06/20 06:32:25;;;;;;;6.88;5.65;;;;;;;23.94;45.73;98675.56;4998021;28;20552;-93
2022/06/20 06:35:38;;;;;;;6.47;5.20;;;;;;;23.41;45.75;98674.53;4891235;29;20531;-92
2022/06/20 06:38:38;;;;;;;8.88;5.45;;;;;;;23.24;47.21;98671.31;4883512;29;20157;-90
2022/06/20 06:41:19;;;;;;;7.15;5.60;;;;;;;23.29;46.83;98690.81;4894175;29;20045;-93
2022/06/20 06:43:51;;;;;;;7.22;5.13;;;;;;;23.50;45.16;98688.19;4890684;29;20141;-92
2022/06/20 06:46:27;;;;;;;6.03;5.00;;;;;;;23.58;45.23;98691.16;4887843;29;20053;-94
2022/06/20 06:49:19;;;;;;;6.35;5.10;;;;;;;23.71;44.04;98685.59;4897684;29;20507;-92
2022/06/20 06:52:01;;;;;;;7.63;5.25;;;;;;;24.03;44.38;98711.06;4890837;29;20385;-95
2022/06/20 06:55:04;;;;;;;6.35;4.93;;;;;;;23.95;44.89;98685.44;4891843;29;20045;-93
2022/06/20 06:57:37;;;;;;;8.07;5.40;;;;;;;24.28;43.89;98682.72;4886728;29;20037;-91
2022/06/20 07:00:27;;;;;;;8.13;5.35;;;;;;;24.85;43.77;98705.91;5001574;28;20089;-91
2022/06/20 07:02:58;;;;;;;9.65;5.60;;;;;;;25.09;42.57;98707.47;5013680;28;20046;-90
2022/06/20 07:05:34;;;;;;;9.32;4.75;;;;;;;24.99;41.56;98675.63;5026743;28;20052;-90
2022/06/20 07:08:12;;;;;;;8.23;5.07;;;;;;;25.19;41.83;98695.66;5042294;28;20111;-90
2022/06/20 07:10:47;;;;;;;8.47;4.97;;;;;;;25.49;40.68;98709.41;5102952;28;20501;-93
2022/06/20 07:13:27;;;;;;;7.00;5.30;;;;;;;25.46;40.70;98672.44;5103301;28;20054;-90
2022/06/20 07:16:14;;;;;;;8.97;5.13;;;;;;;25.73;40.14;98687.28;5102405;28;20031;-89
2022/06/20 07:18:47;;;;;;;8.95;5.70;;;;;;;25.70;39.55;98676.63;5086867;28;20047;-89
2022/06/20 07:21:17;;;;;;;8.90;5.45;;;;;;;25.93;39.45;98678.16;5084018;28;20045;-89
2022/06/20 07:23:48;;;;;;;6.72;5.45;;;;;;;26.07;39.30;98693.25;5083120;28;20056;-90
2022/06/20 07:26:18;;;;;;;6.75;5.00;;;;;;;26.07;39.01;98678.75;5087000;28;20040;-90
2022/06/20 07:28:59;;;;;;;7.45;5.07;;;;;;;26.26;38.83;98672.44;5079455;28;20051;-92
2022/06/20 07:31:34;;;;;;;7.97;5.20;;;;;;;26.38;38.28;98696.69;5073626;28;20048;-92
2022/06/20 07:34:08;;;;;;;8.07;5.10;;;;;;;25.57;39.44;98682.38;5070919;28;20086;-91
2022/06/20 07:36:58;;;;;;;6.35;5.20;;;;;;;25.86;38.20;98693.31;5070226;28;20040;-90
2022/06/20 07:39:56;;;;;;;;;;;;;;;;;;;;;
2022/06/20 07:42:32;;;;;;;7.43;5.25;;;;;;;26.20;38.22;98674.75;5070216;28;20051;-89
2022/06/20 07:45:10;;;;;;;7.28;5.50;;;;;;;25.56;39.43;98676.03;5072286;28;20068;-93
2022/06/20 07:47:53;;;;;;;9.95;5.82;;;;;;;25.77;39.36;98688.72;5066040;28;20037;-91
2022/06/20 07:50:38;;;;;;;10.00;5.78;;;;;;;25.34;39.99;98692.59;5064571;28;20041;-92
2022/06/20 07:53:11;;;;;;;12.43;6.38;;;;;;;25.15;40.51;98672.41;5068800;28;20127;-93
2022/06/20 07:55:42;;;;;;;10.30;5.90;;;;;;;25.90;41.39;98702.13;5069828;28;20052;-91
2022/06/20 07:58:15;;;;;;;9.95;5.60;;;;;;;25.66;39.05;98669.78;5064870;28;20402;-92
2022/06/20 08:00:45;;;;;;;6.60;5.00;;;;;;;25.81;37.34;98707.38;5067383;28;20045;-90
2022/06/20 08:03:23;;;;;;;6.90;5.20;;;;;;;26.00;37.48;98684.78;5068756;28;20509;-93
2022/06/20 08:05:59;;;;;;;10.45;5.22;;;;;;;26.33;36.89;98689.97;5067143;28;20045;-89
2022/06/20 08:08:32;;;;;;;6.45;4.68;;;;;;;26.16;34.39;98683.34;5064882;28;20131;-91
2022/06/20 08:11:06;;;;;;;8.98;5.20;;;;;;;26.52;35.35;98676.28;5071700;28;20059;-90
2022/06/20 08:13:46;;;;;;;7.50;4.85;;;;;;;26.22;35.79;98672.75;5067586;28;20128;-92
2022/06/20 08:16:21;;;;;;;7.32;5.10;;;;;;;26.22;36.42;98675.47;5070667;28;20045;-93
2022/06/20 08:18:47;;;;;;;7.80;5.03;;;;;;;26.44;35.04;98678.91;5073650;28;20040;-90
2022/06/20 08:21:21;;;;;;;6.93;4.95;;;;;;;26.69;35.52;98673.88;5072843;28;20041;-90
2022/06/20 08:23:55;;;;;;;9.95;4.72;;;;;;;26.43;34.38;98675.28;5067896;28;20576;-89
2022/06/20 08:26:28;;;;;;;7.75;4.80;;;;;;;26.78;35.59;98698.44;5071183;28;20444;-92
2022/06/20 08:28:58;;;;;;;5.60;4.45;;;;;;;27.15;33.59;98696.72;5066609;28;20072;-93
2022/06/20 08:31:33;;;;;;;6.53;4.70;;;;;;;27.36;33.97;98683.75;5066929;28;20037;-93
2022/06/20 08:34:04;;;;;;;6.93;4.67;;;;;;;27.31;33.38;98686.09;5068231;28;20040;-89
2022/06/20 08:36:35;;;;;;;7.68;4.90;;;;;;;27.86;33.17;98702.50;5065402;28;20047;-89
2022/06/20 08:39:07;;;;;;;7.82;5.05;;;;;;;28.15;32.49;98674.13;5071970;28;20067;-92
2022/06/20 08:42:07;;;;;;;6.88;5.13;;;;;;;28.43;33.38;98663.97;5066499;28;20393;-92
2022/06/20 08:45:02;;;;;;;7.00;4.97;;;;;;;28.00;32.26;98682.00;5071336;28;20048;-90
2022/06/20 08:48:21;;;;;;;13.93;4.70;;;;;;;28.17;31.83;98693.97;5070179;28;20394;-89
2022/06/20 08:51:28;;;;;;;9.40;4.93;;;;;;;27.80;30.77;98675.78;5066653;28;20043;-90
2022/06/20 08:54:31;;;;;;;6.28;4.35;;;;;;;27.92;30.99;98684.63;5068079;28;20078;-91
2022/06/20 08:57:08;;;;;;;6.78;4.25;;;;;;;28.24;30.65;98680.53;5072101;28;20559;-91
2022/06/20 09:00:02;;;;;;;5.88;4.60;;;;;;;28.44;30.65;98660.19;5068592;28;20105;-93
2022/06/20 09:03:18;;;;;;;8.00;4.50;;;;;;;28.61;29.80;98663.09;5063905;28;20049;-91
2022/06/20 09:06:15;;;;;;;10.65;4.53;;;;;;;29.00;29.25;98655.34;5067602;28;20067;-92
2022/06/20 09:09:20;;;;;;;6.45;4.47;;;;;;;29.15;27.13;98633.72;5067265;28;20040;-92
2022/06/20 09:12:10;;;;;;;5.13;4.50;;;;;;;29.33;28.61;98632.78;5066343;28;20456;-91
2022/06/20 09:15:02;;;;;;;7.38;4.50;;;;;;;29.22;28.56;98637.50;5072633;28;20047;-91
2022/06/20 09:17:58;;;;;;;5.40;4.43;;;;;;;28.88;29.04;98627.34;5045992;28;20053;-87
2022/06/20 09:20:33;;;;;;;6.35;4.57;;;;;;;29.35;28.21;98642.53;5067034;28;20112;-90
2022/06/20 09:23:18;;;;;;;7.18;4.50;;;;;;;29.58;27.48;98628.22;5067653;28;20037;-92
2022/06/20 09:25:54;;;;;;;5.07;4.43;;;;;;;29.62;27.36;98614.03;5072953;28;20086;-91
2022/06/20 09:28:51;;;;;;;6.45;4.50;;;;;;;29.83;28.17;98632.78;5070581;28;20045;-93
2022/06/20 09:31:41;;;;;;;6.88;4.38;;;;;;;30.07;28.24;98623.75;5066492;28;20029;-91
2022/06/20 09:34:32;;;;;;;6.57;4.53;;;;;;;30.18;27.02;98608.00;5014486;28;20044;-90
2022/06/20 09:37:30;;;;;;;6.53;4.35;;;;;;;30.12;27.91;98622.38;5065866;28;20044;-89
2022/06/20 09:40:14;;;;;;;5.50;4.30;;;;;;;30.29;27.65;98613.16;5047910;28;20079;-92
2022/06/20 09:42:48;;;;;;;5.63;4.45;;;;;;;30.46;27.62;98623.09;5065570;28;20048;-90
2022/06/20 09:45:31;;;;;;;6.95;4.90;;;;;;;30.58;26.25;98626.38;5067788;28;20052;-92
2022/06/20 09:48:05;;;;;;;8.00;4.75;;;;;;;30.59;27.04;98617.09;5063869;28;20055;-92
2022/06/20 09:50:53;;;;;;;5.30;4.30;;;;;;;30.48;27.00;98628.44;5064704;28;20040;-88
2022/06/20 09:53:43;;;;;;;5.82;4.13;;;;;;;30.49;26.91;98606.31;5068138;28;20033;-90
2022/06/20 09:56:16;;;;;;;6.45;4.50;;;;;;;30.64;27.04;98608.34;5068767;28;20587;-90
2022/06/20 09:58:55;;;;;;;5.95;4.22;;;;;;;30.46;26.37;98617.63;5065901;28;20033;-90
2022/06/20 10:01:33;;;;;;;4.90;4.32;;;;;;;30.22;26.14;98623.09;5063653;28;20051;-90
2022/06/20 10:04:05;;;;;;;;;;;;;;;30.55;26.43;98632.19;5070709;28;20047;-93
2022/06/20 10:06:47;;;;;;;6.28;4.20;;;;;;;30.54;27.54;98611.28;5069562;28;20014;-91
2022/06/20 10:09:22;;;;;;;8.13;4.40;;;;;;;30.82;26.29;98617.25;5063631;28;20049;-91
2022/06/20 10:12:08;;;;;;;5.30;4.63;;;;;;;30.88;26.76;98593.72;5065407;28;20043;-90
2022/06/20 10:14:49;;;;;;;7.22;4.50;;;;;;;30.98;27.10;98613.63;5069220;28;20045;-90
2022/06/20 10:17:30;;;;;;;6.35;4.28;;;;;;;31.29;27.29;98627.44;5070071;28;20123;-92
2022/06/20 10:20:12;;;;;;;6.10;4.63;;;;;;;31.16;26.55;98591.41;5069837;28;20049;-90
2022/06/20 10:22:54;;;;;;;8.02;4.93;;;;;;;30.76;27.57;98622.56;5065835;28;20519;-91
2022/06/20 10:25:40;;;;;;;6.63;4.22;;;;;;;31.09;27.08;98594.00;5070921;28;20390;-92
2022/06/20 10:28:14;;;;;;;7.20;4.63;;;;;;;31.27;27.18;98602.03;5066789;28;20163;-90
2022/06/20 10:30:48;;;;;;;8.13;4.50;;;;;;;31.30;26.56;98593.44;5064276;28;20410;-93
2022/06/20 10:33:28;;;;;;;5.60;4.40;;;;;;;31.43;27.33;98603.03;5070200;28;20131;-91
2022/06/20 10:36:01;;;;;;;7.40;4.60;;;;;;;31.62;27.04;98602.59;5068002;28;20052;-92
2022/06/20 10:38:38;;;;;;;5.43;4.47;;;;;;;30.29;27.25;98588.47;5067288;28;20041;-90
2022/06/20 10:41:08;;;;;;;5.07;4.57;;;;;;;30.53;26.52;98589.50;5062530;28;20040;-91
2022/06/20 10:43:59;;;;;;;5.80;4.78;;;;;;;30.30;27.95;98591.06;5063635;28;20041;-88
2022/06/20 10:46:30;;;;;;;7.70;4.80;;;;;;;30.26;29.13;98580.56;5064556;28;20047;-92
2022/06/20 10:49:34;;;;;;;6.60;4.40;;;;;;;30.89;28.57;98593.56;5064495;28;20102;-90
2022/06/20 10:52:17;;;;;;;5.68;4.38;;;;;;;31.22;27.54;98590.72;5065371;28;20029;-92
2022/06/20 10:55:00;;;;;;;6.22;4.85;;;;;;;31.50;27.94;98601.25;5067015;28;20041;-91
2022/06/20 10:57:38;;;;;;;8.57;4.45;;;;;;;31.41;26.79;98581.19;5062523;28;20131;-91
2022/06/20 11:00:10;;;;;;;5.28;4.78;;;;;;;31.52;26.04;98580.81;5066736;28;20045;-90
2022/06/20 11:03:19;;;;;;;6.75;4.50;;;;;;;31.54;26.62;98563.28;5069305;28;20478;-91
2022/06/20 11:05:53;;;;;;;8.52;4.75;;;;;;;31.40;26.71;98565.72;4988841;28;20061;-91
2022/06/20 11:08:37;;;;;;;8.43;4.57;;;;;;;31.63;27.19;98597.94;4988424;28;20111;-91
2022/06/20 11:11:24;;;;;;;7.30;4.53;;;;;;;31.67;26.30;98585.53;4986475;28;20125;-91
2022/06/20 11:14:06;;;;;;;5.38;4.57;;;;;;;31.42;26.82;98596.66;4991044;28;20042;-91
2022/06/20 11:16:54;;;;;;;6.70;4.70;;;;;;;31.55;26.32;98554.84;4992278;28;20119;-90
2022/06/20 11:19:44;;;;;;;7.40;4.50;;;;;;;31.73;26.29;98569.19;5008936;28;20054;-92
2022/06/20 11:22:27;;;;;;;4.85;4.35;;;;;;;31.55;25.17;98570.50;5007246;28;20042;-89
2022/06/20 11:25:06;;;;;;;5.90;4.70;;;;;;;31.82;25.26;98580.97;5012927;28;20066;-90
2022/06/20 11:28:11;;;;;;;6.40;4.23;;;;;;;31.64;25.59;98580.41;5010907;28;20101;-90
2022/06/20 11:30:45;;;;;;;4.75;4.15;;;;;;;31.95;26.03;98565.78;5009731;28;20050;-90
2022/06/20 11:34:00;;;;;;;6.63;4.47;;;;;;;31.63;25.46;98538.31;5007313;28;20057;-91
2022/06/20 11:36:19;;;;;;;5.40;4.05;;;;;;;31.73;25.66;98546.34;4997030;28;20578;-90
2022/06/20 11:39:01;;;;;;;7.20;4.32;;;;;;;31.92;27.11;98551.34;5018630;28;20056;-91
2022/06/20 11:41:37;;;;;;;5.43;4.35;;;;;;;32.10;25.75;98562.06;5070850;28;20098;-91
2022/06/20 11:44:27;;;;;;;5.78;4.35;;;;;;;31.82;25.61;98550.72;5069713;28;20060;-91
2022/06/20 11:47:37;;;;;;;4.47;4.00;;;;;;;32.05;25.71;98544.38;5071973;28;20044;-90
2022/06/20 11:50:30;;;;;;;6.00;4.57;;;;;;;31.85;24.82;98544.84;5072169;28;20044;-90
2022/06/20 11:53:22;;;;;;;5.97;4.60;;;;;;;32.29;25.12;98548.81;5070368;28;20040;-91
2022/06/20 11:55:51;;;;;;;7.68;4.22;;;;;;;32.19;23.01;98556.50;5070482;28;20045;-90
2022/06/20 11:58:28;;;;;;;5.40;4.30;;;;;;;31.94;24.29;98556.66;5069186;28;20393;-91
2022/06/20 12:01:14;;;;;;;4.65;4.00;;;;;;;31.71;23.78;98543.75;5066009;28;20079;-92
2022/06/20 12:03:50;;;;;;;4.60;4.05;;;;;;;31.41;24.09;98563.84;5068979;28;20486;-90
2022/06/20 12:06:23;;;;;;;5.18;4.13;;;;;;;31.47;25.03;98528.28;5070155;28;20045;-90
2022/06/20 12:08:57;;;;;;;5.90;4.50;;;;;;;32.08;26.31;98549.53;5073476;28;20505;-94
2022/06/20 12:12:15;;;;;;;6.75;4.20;;;;;;;32.42;24.78;98559.19;5069889;28;20068;-92
2022/06/20 12:14:54;;;;;;;5.68;4.20;;;;;;;32.05;23.63;98517.72;5069575;28;20086;-92
2022/06/20 12:17:34;;;;;;;6.18;3.78;;;;;;;32.30;24.82;98531.28;5071064;28;20513;-91
2022/06/20 12:23:24;;;;;;;5.82;4.00;;;;;;;31.84;23.72;98531.31;5055322;28;20036;-91
2022/06/20 12:26:04;;;;;;;6.93;3.75;;;;;;;31.79;25.00;98533.72;5072280;28;20036;-91
2022/06/20 12:28:37;;;;;;;7.80;4.40;;;;;;;32.05;23.59;98525.13;5068282;28;20044;-92
2022/06/20 12:31:14;;;;;;;6.25;3.92;;;;;;;32.36;23.70;98510.41;5071085;28;21093;-93
2022/06/20 12:33:46;;;;;;;6.45;4.00;;;;;;;32.25;23.00;98528.22;5071138;28;20052;-91
2022/06/20 12:36:22;;;;;;;5.65;4.00;;;;;;;32.34;22.86;98513.38;5070178;28;20043;-93
2022/06/20 12:38:56;;;;;;;5.65;3.85;;;;;;;32.16;23.16;98490.81;5067015;28;20041;-92
2022/06/20 12:41:25;;;;;;;7.03;4.18;;;;;;;32.45;22.49;98501.88;5073846;28;20043;-89
2022/06/20 12:44:06;;;;;;;5.63;3.90;;;;;;;32.67;23.45;98486.34;5068268;28;20044;-90
2022/06/20 12:46:43;;;;;;;4.82;3.78;;;;;;;32.97;22.55;98488.25;5065788;28;20052;-91
2022/06/20 12:49:27;;;;;;;6.72;3.90;;;;;;;32.73;22.65;98509.53;5072886;28;20051;-91
2022/06/20 12:51:58;;;;;;;5.28;3.78;;;;;;;32.92;23.00;98505.31;5070424;28;20443;-90
2022/06/20 12:54:59;;;;;;;5.68;4.00;;;;;;;33.20;22.30;98515.69;5069027;28;20094;-88
2022/06/20 12:57:52;;;;;;;5.30;3.97;;;;;;;33.21;21.53;98496.22;5075011;28;20075;-90
2022/06/20 13:00:39;;;;;;;6.88;3.95;;;;;;;33.05;22.19;98475.22;4988766;28;20050;-90